This is the latest recevied weather packets stored in our database for station/object KO4LFZ. If no packets are shown the sender has not sent any weather packets the latest 10 day(s).
| Time | Temp. | Humidity | Pressure | Rain* | Wind** | Luminosity | Snow |
|---|---|---|---|---|---|---|---|
| 1778116512 | 11.67° C | 90% | 1015.2 hPa | 0 mm | - | 0 W/m² | - |
| 1778116208 | 11.67° C | 90% | 1015.2 hPa | 0 mm | - | 0 W/m² | - |
| 1778115902 | 12.22° C | 86% | 1015.6 hPa | 0 mm | - | 0 W/m² | - |
| 1778115599 | 12.22° C | 86% | 1015.6 hPa | 0 mm | - | 0 W/m² | - |
| 1778115297 | 12.22° C | 87% | 1015.4 hPa | 0 mm | - | 0 W/m² | - |
| 1778114993 | 12.78° C | 88% | 1015.3 hPa | 0 mm | - | 1 W/m² | - |
| 1778114690 | 12.78° C | 86% | 1015.4 hPa | 0 mm | - | 5 W/m² | - |
| 1778114388 | 12.78° C | 86% | 1015.4 hPa | 0 mm | - | 5 W/m² | - |
| 1778114082 | 12.78° C | 86% | 1015.3 hPa | 0 mm | - | 7 W/m² | - |
| 1778113778 | 12.78° C | 86% | 1015.3 hPa | 0 mm | - | 7 W/m² | - |
| 1778113474 | 13.33° C | 85% | 1015.4 hPa | 0 mm | - | 7 W/m² | - |
| 1778113166 | 13.33° C | 82% | 1015.3 hPa | 0 mm | - | 10 W/m² | - |
| 1778112863 | 13.33° C | 78% | 1015.2 hPa | 0 mm | - | 16 W/m² | - |
| 1778112561 | 13.33° C | 80% | 1014.8 hPa | 0 mm | - | 12 W/m² | - |
| 1778112256 | 13.33° C | 78% | 1014.6 hPa | 0 mm | - | 14 W/m² | - |
| 1778111952 | 13.33° C | 78% | 1014.4 hPa | 0 mm | - | 17 W/m² | - |
| 1778111649 | 13.33° C | 77% | 1014.5 hPa | 0 mm | - | 19 W/m² | - |
| 1778111344 | 13.33° C | 78% | 1014.5 hPa | 0 mm | - | 19 W/m² | - |
| 1778111043 | 13.33° C | 78% | 1014 hPa | 0 mm | - | 24 W/m² | - |
| 1778110740 | 13.33° C | 79% | 1013.7 hPa | 0 mm | - | 34 W/m² | - |
| 1778110435 | 13.33° C | 77% | 1013.8 hPa | 0 mm | - | 31 W/m² | - |
| 1778110132 | 13.33° C | 77% | 1013.8 hPa | 0 mm | - | 30 W/m² | - |
| 1778109828 | 13.33° C | 77% | 1014 hPa | 0 mm | - | 32 W/m² | - |
| 1778109524 | 13.33° C | 78% | 1013.7 hPa | 0 mm | - | 35 W/m² | - |
| 1778109222 | 13.33° C | 78% | 1013.5 hPa | 0 mm | - | 42 W/m² | - |
* Rain latest hour (hover to see other rain measurements)
** Current wind speed in m/s (hover to see current wind gust speed)